Time;durP1;ratioP1;P1;durP2;ratioP2;P2;SDS_P1;SDS_P2;PMS_P1;PMS_P2;Temp;Humidity;BMP_temperature;BMP_pressure;BME280_temperature;BME280_humidity;BME280_pressure;Samples;Min_cycle;Max_cycle;Signal;HPM_P1;HPM_P2
2023/04/26 00:01:56;;;;;;;8.82;3.10;;;6.50;99.90;;;;;;4983757;28;20495;-73
2023/04/26 00:04:22;;;;;;;11.27;2.92;;;6.60;99.90;;;;;;4993716;28;20097;-73
2023/04/26 00:06:48;;;;;;;8.90;3.47;;;6.50;99.90;;;;;;4993666;28;20031;-72
2023/04/26 00:09:14;;;;;;;10.05;3.08;;;6.50;99.90;;;;;;4993668;28;20018;-72
2023/04/26 00:11:40;;;;;;;10.50;3.40;;;6.40;99.90;;;;;;4993506;28;20077;-73
2023/04/26 00:14:05;;;;;;;10.73;3.35;;;6.40;99.90;;;;;;4993952;28;20403;-73
2023/04/26 00:16:31;;;;;;;8.32;3.65;;;6.30;99.90;;;;;;4993447;28;20358;-72
2023/04/26 00:18:57;;;;;;;10.60;3.85;;;6.30;99.90;;;;;;4993536;28;20042;-72
2023/04/26 00:21:22;;;;;;;10.20;4.20;;;6.20;99.90;;;;;;4992438;28;20029;-73
2023/04/26 00:23:48;;;;;;;10.23;4.22;;;6.20;99.90;;;;;;4990358;28;20014;-73
2023/04/26 00:26:13;;;;;;;13.40;4.32;;;6.10;99.90;;;;;;4987298;28;20030;-73
2023/04/26 00:28:39;;;;;;;10.77;4.65;;;6.10;99.90;;;;;;4987655;28;20035;-73
2023/04/26 00:31:06;;;;;;;12.35;4.82;;;6.00;99.90;;;;;;4991537;28;20552;-72
2023/04/26 00:33:31;;;;;;;11.45;5.43;;;6.00;99.90;;;;;;4992509;28;20022;-73
2023/04/26 00:35:57;;;;;;;13.43;5.32;;;5.90;99.90;;;;;;4991331;28;20033;-72
2023/04/26 00:38:22;;;;;;;12.98;5.75;;;5.90;99.90;;;;;;4991701;28;20026;-72
2023/04/26 00:40:48;;;;;;;11.65;5.05;;;5.80;99.90;;;;;;4991416;28;20030;-72
2023/04/26 00:43:14;;;;;;;14.52;5.78;;;5.80;99.90;;;;;;4992000;28;20593;-72
2023/04/26 00:45:40;;;;;;;9.32;5.22;;;5.80;99.90;;;;;;4991635;28;20023;-73
2023/04/26 00:48:06;;;;;;;14.57;5.18;;;5.80;99.90;;;;;;4990163;28;20113;-73
2023/04/26 00:50:32;;;;;;;16.08;6.03;;;5.80;99.90;;;;;;4991956;28;20689;-72
2023/04/26 00:52:59;;;;;;;16.10;5.45;;;5.70;99.90;;;;;;4992521;28;20022;-72
2023/04/26 00:55:26;;;;;;;9.70;5.45;;;5.70;99.90;;;;;;4971076;28;20051;-73
2023/04/26 00:57:52;;;;;;;13.70;5.95;;;5.70;99.90;;;;;;4972920;28;20382;-72
2023/04/26 01:00:18;;;;;;;13.63;5.65;;;5.70;99.90;;;;;;4972989;28;20022;-72
2023/04/26 01:02:44;;;;;;;11.00;5.50;;;5.70;99.90;;;;;;4973611;28;20678;-72
2023/04/26 01:05:10;;;;;;;14.68;6.00;;;5.60;99.90;;;;;;4988156;28;20623;-72
2023/04/26 01:07:37;;;;;;;12.98;6.00;;;5.60;99.90;;;;;;4969493;28;20035;-73
2023/04/26 01:10:04;;;;;;;15.00;5.53;;;5.50;99.90;;;;;;4973362;28;20015;-72
2023/04/26 01:12:31;;;;;;;14.02;6.38;;;5.50;99.90;;;;;;4973412;28;20358;-72
2023/04/26 01:14:58;;;;;;;12.95;5.47;;;5.50;99.90;;;;;;4973182;28;20030;-73
2023/04/26 01:17:24;;;;;;;10.50;5.35;;;5.50;99.90;;;;;;4986497;28;20097;-73
2023/04/26 01:19:50;;;;;;;16.20;6.18;;;5.40;99.90;;;;;;4973219;28;20015;-73
2023/04/26 01:22:16;;;;;;;16.83;6.47;;;5.40;99.90;;;;;;4973480;28;20102;-73
2023/04/26 01:24:45;;;;;;;13.55;5.68;;;5.40;99.90;;;;;;4973065;28;20022;-72
2023/04/26 01:27:11;;;;;;;16.05;6.30;;;5.40;99.90;;;;;;4961659;28;20090;-72
2023/04/26 01:29:37;;;;;;;17.52;6.40;;;5.40;99.90;;;;;;4973007;28;20026;-73
2023/04/26 01:32:03;;;;;;;14.68;5.90;;;5.30;99.90;;;;;;4973198;28;20026;-72
2023/04/26 01:34:29;;;;;;;13.90;6.07;;;5.30;99.90;;;;;;4972871;28;20027;-72
2023/04/26 01:36:54;;;;;;;21.52;6.45;;;5.30;99.90;;;;;;4972980;28;20026;-72
2023/04/26 01:39:21;;;;;;;14.00;6.18;;;5.30;99.90;;;;;;4973290;28;20115;-73
2023/04/26 01:41:47;;;;;;;14.82;6.57;;;5.20;99.90;;;;;;4971658;28;20101;-73
2023/04/26 01:44:12;;;;;;;12.07;6.40;;;5.20;99.90;;;;;;4972838;28;20027;-73
2023/04/26 01:46:38;;;;;;;14.98;5.90;;;5.20;99.90;;;;;;4965420;28;20035;-72
2023/04/26 01:49:04;;;;;;;10.57;6.45;;;5.20;99.90;;;;;;4972066;28;20037;-72
2023/04/26 01:51:29;;;;;;;11.43;5.70;;;5.10;99.90;;;;;;4972872;28;20030;-72
2023/04/26 01:53:55;;;;;;;14.52;6.55;;;5.10;99.90;;;;;;4973029;28;20049;-72
2023/04/26 01:56:23;;;;;;;14.35;6.25;;;5.10;99.90;;;;;;4986840;28;20051;-72
2023/04/26 01:58:49;;;;;;;15.45;6.57;;;5.10;99.90;;;;;;4991949;28;20058;-72
2023/04/26 02:01:15;;;;;;;16.08;7.15;;;5.10;99.90;;;;;;4992333;28;20064;-73
2023/04/26 02:03:40;;;;;;;15.77;6.93;;;5.10;99.90;;;;;;4992116;28;20026;-72
2023/04/26 02:06:06;;;;;;;19.83;7.45;;;5.10;99.90;;;;;;4990892;28;20037;-72
2023/04/26 02:08:32;;;;;;;18.02;7.35;;;5.10;99.90;;;;;;4991924;28;20038;-72
2023/04/26 02:10:58;;;;;;;17.90;6.85;;;5.10;99.90;;;;;;4991253;28;20022;-72
2023/04/26 02:13:24;;;;;;;15.40;6.97;;;5.10;99.90;;;;;;4991899;28;20068;-73
2023/04/26 02:15:50;;;;;;;18.58;7.22;;;5.10;99.90;;;;;;4991659;28;20019;-72
2023/04/26 02:18:16;;;;;;;19.23;7.07;;;5.10;99.90;;;;;;4991876;28;20023;-72
2023/04/26 02:20:42;;;;;;;14.85;6.70;;;5.10;99.90;;;;;;4991972;28;20061;-72
2023/04/26 02:23:09;;;;;;;18.00;7.32;;;5.10;99.90;;;;;;4991560;28;20053;-72
2023/04/26 02:25:35;;;;;;;16.17;7.18;;;5.10;99.90;;;;;;4991733;28;20373;-72
2023/04/26 02:28:00;;;;;;;18.15;6.60;;;5.10;99.90;;;;;;4991489;28;20049;-72
2023/04/26 02:30:27;;;;;;;16.75;6.95;;;5.10;99.90;;;;;;4991658;28;20019;-72
2023/04/26 02:32:56;;;;;;;18.90;6.80;;;5.10;99.90;;;;;;4991935;28;20577;-72
2023/04/26 02:35:22;;;;;;;15.70;6.55;;;5.10;99.90;;;;;;4984460;28;20085;-72
2023/04/26 02:37:47;;;;;;;17.00;6.55;;;5.10;99.90;;;;;;4984981;28;20077;-72
2023/04/26 02:40:14;;;;;;;16.35;6.03;;;5.10;99.90;;;;;;4991816;28;20530;-72
2023/04/26 02:42:40;;;;;;;15.30;6.97;;;5.10;99.90;;;;;;4990358;28;20383;-72
2023/04/26 02:45:07;;;;;;;18.55;6.75;;;5.20;99.90;;;;;;4991800;28;20399;-72
2023/04/26 02:47:35;;;;;;;18.85;7.18;;;5.10;99.90;;;;;;4987098;28;20045;-72
2023/04/26 02:50:01;;;;;;;22.17;6.90;;;5.20;99.90;;;;;;4991803;28;20077;-72
2023/04/26 02:52:27;;;;;;;19.35;6.95;;;5.20;99.90;;;;;;4991560;28;20019;-72
2023/04/26 02:54:53;;;;;;;18.90;6.80;;;5.20;99.90;;;;;;4991737;28;20393;-72
2023/04/26 02:57:18;;;;;;;17.75;7.00;;;5.20;99.90;;;;;;4982150;28;20599;-73
2023/04/26 02:59:44;;;;;;;20.80;7.80;;;5.20;99.90;;;;;;4991119;28;20027;-72
2023/04/26 03:02:09;;;;;;;15.77;7.20;;;5.20;99.90;;;;;;4991329;28;20149;-72
2023/04/26 03:04:35;;;;;;;16.20;7.07;;;5.20;99.90;;;;;;4991152;28;20033;-72
2023/04/26 03:07:03;;;;;;;13.95;7.15;;;5.30;99.90;;;;;;4991132;28;20481;-72
2023/04/26 03:09:29;;;;;;;16.33;7.25;;;5.30;99.90;;;;;;4991454;28;20427;-72
2023/04/26 03:11:55;;;;;;;21.58;7.70;;;5.30;99.90;;;;;;4984768;28;20029;-72
2023/04/26 03:14:21;;;;;;;23.88;8.05;;;5.30;99.90;;;;;;4986156;28;20023;-72
2023/04/26 03:16:47;;;;;;;15.63;7.43;;;5.30;99.90;;;;;;4986655;28;20042;-72
2023/04/26 03:19:13;;;;;;;20.52;7.80;;;5.30;99.90;;;;;;4989941;28;20046;-72
2023/04/26 03:21:39;;;;;;;18.83;7.90;;;5.30;99.90;;;;;;4990531;28;20412;-73
2023/04/26 03:24:05;;;;;;;21.65;8.18;;;5.30;99.90;;;;;;4964980;28;20023;-72
2023/04/26 03:26:31;;;;;;;14.57;7.07;;;5.30;99.90;;;;;;4993585;28;20026;-72
2023/04/26 03:28:56;;;;;;;16.25;7.57;;;5.20;99.90;;;;;;4993947;28;20484;-72
2023/04/26 03:31:22;;;;;;;16.88;7.85;;;5.20;99.90;;;;;;4994007;28;20041;-72
2023/04/26 03:33:48;;;;;;;16.80;8.40;;;5.20;99.90;;;;;;4986969;28;20030;-72
2023/04/26 03:36:14;;;;;;;16.55;8.25;;;5.20;99.90;;;;;;4994050;28;20048;-73
2023/04/26 03:38:41;;;;;;;15.57;7.88;;;5.10;99.90;;;;;;4994015;28;20060;-72
2023/04/26 03:41:07;;;;;;;17.23;7.38;;;5.20;99.90;;;;;;4994502;28;20026;-73
2023/04/26 03:43:32;;;;;;;19.05;7.32;;;5.20;99.90;;;;;;4994386;28;20413;-73
2023/04/26 03:45:59;;;;;;;20.70;8.40;;;5.10;99.90;;;;;;4994146;28;20026;-72
2023/04/26 03:48:24;;;;;;;15.82;8.20;;;5.10;99.90;;;;;;4988931;28;20508;-72
2023/04/26 03:50:50;;;;;;;17.45;7.65;;;5.10;99.90;;;;;;4993610;28;20034;-72
2023/04/26 03:53:16;;;;;;;17.60;8.13;;;5.00;99.90;;;;;;4993736;28;20018;-72
2023/04/26 03:55:42;;;;;;;21.70;7.38;;;5.00;99.90;;;;;;4994021;28;20054;-73
2023/04/26 03:58:07;;;;;;;17.58;7.90;;;5.00;99.90;;;;;;4979792;28;20076;-72
2023/04/26 04:00:37;;;;;;;14.95;7.65;;;4.90;99.90;;;;;;4976140;28;20099;-73
2023/04/26 04:03:03;;;;;;;18.55;7.68;;;4.90;99.90;;;;;;4994247;28;20026;-73
2023/04/26 04:05:29;;;;;;;16.92;7.47;;;4.90;99.90;;;;;;4993725;28;20022;-72
2023/04/26 04:07:55;;;;;;;19.40;7.72;;;4.90;99.90;;;;;;4993955;28;20047;-73
2023/04/26 04:10:22;;;;;;;16.38;7.85;;;4.90;99.90;;;;;;4991226;28;20025;-73
2023/04/26 04:12:48;;;;;;;19.00;8.25;;;4.90;99.90;;;;;;4993921;28;20033;-73
2023/04/26 04:15:13;;;;;;;22.70;7.97;;;4.90;99.90;;;;;;4993590;28;20076;-73
2023/04/26 04:17:39;;;;;;;23.50;9.15;;;4.90;99.90;;;;;;4993299;28;20363;-72
2023/04/26 04:20:06;;;;;;;19.02;8.38;;;4.90;99.90;;;;;;4993266;28;20069;-72
2023/04/26 04:22:32;;;;;;;21.77;9.30;;;4.90;99.90;;;;;;4986921;28;20018;-72
2023/04/26 04:24:59;;;;;;;25.02;10.00;;;4.90;99.90;;;;;;4993101;28;20429;-73
2023/04/26 04:27:25;;;;;;;19.75;8.88;;;5.00;99.90;;;;;;4993277;28;20026;-72
2023/04/26 04:29:52;;;;;;;22.33;10.13;;;5.00;99.90;;;;;;4992951;28;20026;-73
2023/04/26 04:32:18;;;;;;;20.70;9.25;;;5.00;99.90;;;;;;4993694;28;20030;-72
2023/04/26 04:34:44;;;;;;;20.98;9.80;;;5.00;99.90;;;;;;4992002;28;20041;-72
2023/04/26 04:37:10;;;;;;;20.27;9.50;;;5.00;99.90;;;;;;4991897;28;20105;-73
2023/04/26 04:39:36;;;;;;;21.45;8.60;;;5.00;99.90;;;;;;4993087;28;20531;-72
2023/04/26 04:42:02;;;;;;;20.00;9.45;;;5.00;99.90;;;;;;4992969;28;20022;-73
2023/04/26 04:44:27;;;;;;;27.90;9.82;;;5.00;99.90;;;;;;4993113;28;20026;-73
2023/04/26 04:46:53;;;;;;;24.70;9.73;;;5.00;99.90;;;;;;4989188;28;20236;-73
2023/04/26 04:49:19;;;;;;;25.10;10.02;;;5.00;99.90;;;;;;4987280;28;20041;-72
2023/04/26 04:51:44;;;;;;;18.83;9.48;;;5.00;99.90;;;;;;4993387;28;20457;-73
2023/04/26 04:54:14;;;;;;;21.98;9.10;;;5.00;99.90;;;;;;4980131;28;20019;-74
2023/04/26 04:56:40;;;;;;;23.02;9.48;;;4.90;99.90;;;;;;4992784;28;20471;-72
2023/04/26 04:59:07;;;;;;;17.05;8.70;;;4.90;99.90;;;;;;4992276;28;20030;-73
2023/04/26 05:01:33;;;;;;;21.33;9.30;;;4.90;99.90;;;;;;4993361;28;20026;-72
2023/04/26 05:03:58;;;;;;;26.40;9.77;;;4.90;99.90;;;;;;4992349;28;20030;-72
2023/04/26 05:06:26;;;;;;;19.75;9.18;;;4.90;99.90;;;;;;4992588;28;20018;-72
2023/04/26 05:08:52;;;;;;;19.98;8.93;;;4.90;99.90;;;;;;4992168;28;20034;-72
2023/04/26 05:11:18;;;;;;;19.73;9.20;;;5.00;99.90;;;;;;4993016;28;20065;-72
2023/04/26 05:13:44;;;;;;;19.08;8.82;;;4.90;99.90;;;;;;4992699;28;20328;-72
2023/04/26 05:16:10;;;;;;;21.08;9.95;;;5.00;99.90;;;;;;4974780;28;20524;-72
2023/04/26 05:18:37;;;;;;;23.33;9.05;;;5.00;99.90;;;;;;4986265;28;20026;-73
2023/04/26 05:21:04;;;;;;;24.95;9.73;;;5.00;99.90;;;;;;4982061;28;20066;-73
2023/04/26 05:23:30;;;;;;;25.15;9.35;;;5.10;99.90;;;;;;4989497;28;20030;-73
2023/04/26 05:25:56;;;;;;;26.25;9.45;;;5.10;99.90;;;;;;4980849;28;20030;-72
2023/04/26 05:28:22;;;;;;;18.83;8.75;;;5.20;99.90;;;;;;4987759;28;20069;-73
2023/04/26 05:30:48;;;;;;;21.92;9.20;;;5.20;99.90;;;;;;4992809;28;20568;-73
2023/04/26 05:33:14;;;;;;;19.80;8.57;;;5.20;99.90;;;;;;4992389;28;20076;-73
2023/04/26 05:35:40;;;;;;;20.00;8.88;;;5.30;99.90;;;;;;4992369;28;20524;-73
2023/04/26 05:38:06;;;;;;;19.27;8.07;;;5.40;99.90;;;;;;4992409;28;20026;-73
2023/04/26 05:40:31;;;;;;;19.48;7.95;;;5.40;99.90;;;;;;4992024;28;20015;-73
2023/04/26 05:42:57;;;;;;;19.80;8.20;;;5.50;99.90;;;;;;4992433;28;20022;-73
2023/04/26 05:45:23;;;;;;;25.98;8.45;;;5.60;99.90;;;;;;4987502;28;20129;-72
2023/04/26 05:47:48;;;;;;;13.05;7.35;;;5.60;99.90;;;;;;4984622;28;20034;-73
2023/04/26 05:50:14;;;;;;;14.73;7.57;;;5.70;99.90;;;;;;4991659;28;20066;-73
2023/04/26 05:52:40;;;;;;;16.83;7.07;;;5.70;99.90;;;;;;4991987;28;20098;-73
2023/04/26 05:55:06;;;;;;;16.13;7.22;;;5.80;99.90;;;;;;4991234;28;20058;-73
2023/04/26 05:57:31;;;;;;;14.85;6.60;;;5.80;99.90;;;;;;4991956;28;20030;-73
2023/04/26 05:59:57;;;;;;;16.05;6.97;;;5.90;99.90;;;;;;4991673;28;20027;-72
2023/04/26 06:02:22;;;;;;;15.05;6.70;;;5.90;99.90;;;;;;4992279;28;20109;-73
2023/04/26 06:04:48;;;;;;;14.27;6.43;;;6.00;99.90;;;;;;4992294;28;20027;-72
2023/04/26 06:07:15;;;;;;;12.70;6.60;;;6.10;99.90;;;;;;4992189;28;20374;-73
2023/04/26 06:09:42;;;;;;;14.73;6.82;;;6.20;99.90;;;;;;4992058;28;20562;-72
2023/04/26 06:12:07;;;;;;;15.65;6.82;;;6.20;99.90;;;;;;4992060;28;20497;-72
2023/04/26 06:14:33;;;;;;;13.57;6.82;;;6.30;99.90;;;;;;4991825;28;20053;-72
2023/04/26 06:16:59;;;;;;;14.27;6.95;;;6.30;99.90;;;;;;4991507;28;20098;-73
2023/04/26 06:19:25;;;;;;;19.33;6.57;;;6.40;99.90;;;;;;4991712;28;20466;-73
2023/04/26 06:21:54;;;;;;;14.13;6.72;;;6.50;99.90;;;;;;4991596;28;20437;-73
2023/04/26 06:24:20;;;;;;;17.17;6.70;;;6.50;99.90;;;;;;4991773;28;20031;-73
2023/04/26 06:26:45;;;;;;;13.43;6.18;;;6.60;99.90;;;;;;4991414;28;20409;-73
2023/04/26 06:29:11;;;;;;;16.75;6.53;;;6.60;99.90;;;;;;4991522;28;20031;-72
2023/04/26 06:31:37;;;;;;;17.73;5.88;;;6.70;99.90;;;;;;4991527;28;20022;-73
2023/04/26 06:34:03;;;;;;;13.55;6.55;;;6.70;99.90;;;;;;4992013;28;20023;-72
2023/04/26 06:36:30;;;;;;;15.60;5.80;;;6.80;99.90;;;;;;4990986;28;20440;-73
2023/04/26 06:38:55;;;;;;;10.68;5.70;;;6.90;99.90;;;;;;4991845;28;20030;-73
2023/04/26 06:41:21;;;;;;;12.55;5.85;;;7.00;99.90;;;;;;4992108;28;20105;-73
2023/04/26 06:43:47;;;;;;;11.07;5.20;;;7.10;99.90;;;;;;4992347;28;20420;-73
2023/04/26 06:46:13;;;;;;;13.57;5.43;;;7.10;99.90;;;;;;4992062;28;20069;-73
2023/04/26 06:48:39;;;;;;;10.25;5.13;;;7.20;99.90;;;;;;4991390;28;20485;-73
2023/04/26 06:51:06;;;;;;;10.43;4.45;;;7.30;99.90;;;;;;4989350;28;20091;-73
2023/04/26 06:53:32;;;;;;;7.97;3.13;;;7.40;99.90;;;;;;4991518;28;20030;-73
2023/04/26 06:55:58;;;;;;;5.53;2.30;;;7.50;99.90;;;;;;4991601;28;20065;-73
2023/04/26 06:58:24;;;;;;;5.20;2.03;;;7.50;99.90;;;;;;4995384;28;20019;-73
2023/04/26 07:00:49;;;;;;;7.53;2.13;;;7.60;99.90;;;;;;4991426;28;20023;-73
2023/04/26 07:03:15;;;;;;;7.00;1.80;;;7.60;99.90;;;;;;4994855;28;20076;-73
2023/04/26 07:05:41;;;;;;;4.82;1.63;;;7.60;99.90;;;;;;4994972;28;20481;-73
2023/04/26 07:08:06;;;;;;;5.22;2.22;;;7.70;99.90;;;;;;4995592;28;20030;-73
2023/04/26 07:10:32;;;;;;;6.90;2.00;;;7.60;99.90;;;;;;4995027;28;20510;-73
2023/04/26 07:12:57;;;;;;;4.10;1.90;;;7.70;99.90;;;;;;4995505;28;20105;-73
2023/04/26 07:15:23;;;;;;;6.45;2.28;;;7.80;99.90;;;;;;4995280;28;20026;-73
2023/04/26 07:17:49;;;;;;;5.97;1.77;;;7.80;99.90;;;;;;4995205;28;20389;-73
2023/04/26 07:20:18;;;;;;;4.05;1.65;;;7.90;99.90;;;;;;4995046;28;20027;-73
2023/04/26 07:22:44;;;;;;;7.30;2.10;;;7.80;99.90;;;;;;4994918;28;20031;-73
2023/04/26 07:25:10;;;;;;;4.45;1.70;;;7.70;99.90;;;;;;4994614;28;20021;-74
2023/04/26 07:27:36;;;;;;;5.57;1.55;;;7.60;99.90;;;;;;4994730;28;20394;-73
2023/04/26 07:30:02;;;;;;;6.60;1.80;;;7.50;99.90;;;;;;4994483;28;20019;-73
2023/04/26 07:32:27;;;;;;;6.75;1.90;;;7.40;99.90;;;;;;4994452;28;20018;-73
2023/04/26 07:34:53;;;;;;;4.38;2.13;;;7.40;99.90;;;;;;4993855;28;20041;-73
2023/04/26 07:37:18;;;;;;;2.97;1.58;;;7.40;99.90;;;;;;4994453;28;20026;-74
2023/04/26 07:39:44;;;;;;;5.70;1.60;;;7.40;99.90;;;;;;4993414;28;20037;-73
2023/04/26 07:42:09;;;;;;;4.88;1.92;;;7.40;99.90;;;;;;4993177;28;20035;-73
2023/04/26 07:44:35;;;;;;;8.88;1.83;;;7.40;99.90;;;;;;4993548;28;20037;-73
2023/04/26 07:47:01;;;;;;;8.75;2.25;;;7.40;99.90;;;;;;4993403;28;20018;-73
2023/04/26 07:49:26;;;;;;;7.00;1.73;;;7.50;99.90;;;;;;4994141;28;20404;-73
2023/04/26 07:51:52;;;;;;;5.18;1.73;;;7.50;99.90;;;;;;4993608;28;20076;-73
2023/04/26 07:54:17;;;;;;;5.80;1.65;;;7.60;99.90;;;;;;4994073;28;20026;-73
2023/04/26 07:56:43;;;;;;;5.38;1.60;;;7.70;99.90;;;;;;4994068;28;20035;-73
2023/04/26 07:59:09;;;;;;;6.93;1.67;;;7.80;99.90;;;;;;4993612;28;20440;-73
2023/04/26 08:01:34;;;;;;;5.28;1.60;;;7.90;99.90;;;;;;4992953;28;20015;-73
2023/04/26 08:04:00;;;;;;;3.72;1.40;;;8.00;99.90;;;;;;4993576;28;20026;-73
2023/04/26 08:06:26;;;;;;;5.30;1.52;;;8.10;99.90;;;;;;4993501;28;20023;-73
2023/04/26 08:08:52;;;;;;;5.63;1.75;;;8.20;99.90;;;;;;4991812;28;20042;-73
2023/04/26 08:11:18;;;;;;;4.60;1.50;;;8.20;99.90;;;;;;4993126;28;20018;-73
2023/04/26 08:13:44;;;;;;;3.28;1.50;;;8.30;99.90;;;;;;4975588;28;20032;-73
2023/04/26 08:16:09;;;;;;;4.60;1.70;;;8.30;99.90;;;;;;4975738;28;20030;-73
2023/04/26 08:18:35;;;;;;;6.10;1.60;;;8.40;99.90;;;;;;4992669;28;20045;-73
2023/04/26 08:21:01;;;;;;;5.70;1.50;;;8.40;99.90;;;;;;4980313;28;20417;-73
2023/04/26 08:23:27;;;;;;;5.22;1.60;;;8.50;99.90;;;;;;4992427;28;20042;-73
2023/04/26 08:25:53;;;;;;;5.80;1.40;;;8.50;99.90;;;;;;4992171;28;20026;-73
2023/04/26 08:28:19;;;;;;;7.25;1.67;;;8.50;99.90;;;;;;4992834;28;20030;-73
2023/04/26 08:30:44;;;;;;;7.63;1.45;;;8.40;99.90;;;;;;4993264;28;20030;-73
2023/04/26 08:33:10;;;;;;;4.15;1.70;;;8.40;99.90;;;;;;4991480;28;20026;-73
2023/04/26 08:35:36;;;;;;;4.47;1.45;;;8.40;99.90;;;;;;4992313;28;20026;-73
2023/04/26 08:38:01;;;;;;;6.20;1.88;;;8.40;99.90;;;;;;4991924;28;20084;-74
2023/04/26 08:40:27;;;;;;;5.40;1.40;;;8.40;99.90;;;;;;4990957;28;20462;-73
2023/04/26 08:42:52;;;;;;;4.93;1.70;;;8.50;99.90;;;;;;4991896;28;20109;-73
2023/04/26 08:45:21;;;;;;;5.45;1.88;;;8.50;99.90;;;;;;4989636;28;20018;-73
2023/04/26 08:47:48;;;;;;;2.63;1.35;;;8.60;99.90;;;;;;4992568;28;20093;-73
2023/04/26 08:50:15;;;;;;;4.95;1.73;;;8.70;99.90;;;;;;4992658;28;20045;-73
2023/04/26 08:52:41;;;;;;;6.22;1.33;;;8.80;99.90;;;;;;4992614;28;20033;-73
2023/04/26 08:55:11;;;;;;;5.22;1.58;;;8.90;99.90;;;;;;4992538;28;20042;-73
2023/04/26 08:57:39;;;;;;;8.52;2.05;;;9.00;99.90;;;;;;4992599;28;20026;-74
2023/04/26 09:00:09;;;;;;;9.32;1.92;;;9.00;99.90;;;;;;4987389;28;20018;-72
2023/04/26 09:02:35;;;;;;;6.68;1.70;;;9.10;99.90;;;;;;4992683;28;20057;-72
2023/04/26 09:05:02;;;;;;;7.30;1.52;;;9.10;99.90;;;;;;4993069;28;20027;-73
2023/04/26 09:07:38;;;;;;;6.95;1.60;;;9.10;99.90;;;;;;4992391;28;20018;-72
2023/04/26 09:10:05;;;;;;;4.93;1.63;;;9.10;99.90;;;;;;4992500;28;20042;-72
2023/04/26 09:12:31;;;;;;;6.95;1.73;;;9.10;99.90;;;;;;4992317;28;20073;-73
2023/04/26 09:14:56;;;;;;;6.32;2.00;;;8.90;99.90;;;;;;4975313;28;20019;-72
2023/04/26 09:17:29;;;;;;;7.95;1.80;;;8.70;99.90;;;;;;4989424;28;20026;-72
2023/04/26 09:19:56;;;;;;;6.88;2.17;;;8.40;99.90;;;;;;4984679;28;20432;-72
2023/04/26 09:22:27;;;;;;;7.05;2.05;;;8.20;99.90;;;;;;4992279;28;20026;-72
2023/04/26 09:24:53;;;;;;;3.20;1.77;;;8.10;99.90;;;;;;4992444;28;20069;-72
2023/04/26 09:27:20;;;;;;;7.13;2.08;;;7.80;99.90;;;;;;4992461;28;20387;-72
2023/04/26 09:30:06;;;;;;;8.40;2.05;;;7.70;99.90;;;;;;4992580;28;20373;-72
2023/04/26 09:33:03;;;;;;;3.35;1.75;;;7.60;99.90;;;;;;4991510;28;20955;-72
2023/04/26 09:35:34;;;;;;;3.38;2.10;;;7.70;99.90;;;;;;4992379;28;20057;-72
2023/04/26 09:38:13;;;;;;;5.25;1.98;;;7.90;99.90;;;;;;4991557;28;20129;-72
2023/04/26 09:40:39;;;;;;;6.78;2.22;;;8.00;99.90;;;;;;4983002;28;20022;-72
2023/04/26 09:43:12;;;;;;;8.57;2.20;;;8.20;99.90;;;;;;4991930;28;20446;-72
2023/04/26 09:45:49;;;;;;;7.35;1.83;;;8.40;99.90;;;;;;4974615;28;20126;-72
2023/04/26 09:48:21;;;;;;;3.88;1.80;;;8.60;99.90;;;;;;4990214;28;20445;-72
2023/04/26 09:50:51;;;;;;;4.30;1.52;;;8.80;99.90;;;;;;4992099;28;20073;-72
2023/04/26 09:53:38;;;;;;;9.52;2.03;;;8.90;99.90;;;;;;4991469;28;20033;-72
2023/04/26 09:56:12;;;;;;;7.18;2.10;;;9.00;99.90;;;;;;4973726;28;20117;-72
2023/04/26 09:58:39;;;;;;;5.57;1.98;;;9.20;99.90;;;;;;4992253;28;20398;-72
2023/04/26 10:01:06;;;;;;;6.47;1.77;;;9.30;99.90;;;;;;4992167;28;20102;-72
2023/04/26 10:03:33;;;;;;;11.38;1.95;;;9.40;99.90;;;;;;4992221;28;20430;-73
2023/04/26 10:05:59;;;;;;;5.40;1.80;;;9.50;99.90;;;;;;4991852;28;20405;-72
2023/04/26 10:08:25;;;;;;;7.03;1.92;;;9.60;99.90;;;;;;4974355;28;20054;-73
2023/04/26 10:10:51;;;;;;;5.55;1.70;;;9.70;99.90;;;;;;4992081;28;20031;-73
2023/04/26 10:13:21;;;;;;;6.43;1.70;;;9.80;99.90;;;;;;4992269;28;20425;-73
2023/04/26 10:15:47;;;;;;;6.28;1.67;;;9.90;99.90;;;;;;4992217;28;20026;-72
2023/04/26 10:18:12;;;;;;;5.47;1.60;;;10.10;99.90;;;;;;4981816;28;20027;-73
2023/04/26 10:20:41;;;;;;;7.13;1.73;;;10.20;99.90;;;;;;4991028;28;20026;-73
2023/04/26 10:23:15;;;;;;;8.55;1.98;;;10.40;99.90;;;;;;4991756;28;20026;-73
2023/04/26 10:25:41;;;;;;;6.03;1.90;;;10.60;99.90;;;;;;4992013;28;20026;-72
2023/04/26 10:28:07;;;;;;;4.47;1.23;;;10.80;99.90;;;;;;4991540;28;20026;-73
2023/04/26 10:30:53;;;;;;;5.47;1.58;;;11.00;99.90;;;;;;4991491;28;20524;-73
2023/04/26 10:33:20;;;;;;;4.38;1.85;;;11.30;99.90;;;;;;4990450;28;20019;-72
2023/04/26 10:36:03;;;;;;;5.30;1.60;;;11.50;99.90;;;;;;4995881;28;20065;-72
2023/04/26 10:38:29;;;;;;;7.78;1.98;;;11.70;99.90;;;;;;4993182;28;20037;-72
2023/04/26 10:41:34;;;;;;;5.93;1.50;;;11.80;99.90;;;;;;4995810;28;20026;-72
2023/04/26 10:44:39;;;;;;;3.30;1.63;;;11.90;99.90;;;;;;4985689;28;20373;-73
2023/04/26 10:47:07;;;;;;;7.47;1.90;;;11.70;99.90;;;;;;4989141;28;20104;-73
2023/04/26 10:49:48;;;;;;;3.58;1.67;;;11.60;99.90;;;;;;4986358;28;20476;-73
2023/04/26 10:52:23;;;;;;;7.50;1.80;;;11.50;99.90;;;;;;4995015;28;20468;-73
2023/04/26 10:54:51;;;;;;;2.42;1.55;;;11.60;99.90;;;;;;4995282;28;20041;-73
2023/04/26 10:57:17;;;;;;;3.65;1.60;;;11.70;99.90;;;;;;4995571;28;20030;-73
2023/04/26 11:00:16;;;;;;;4.68;1.60;;;11.80;99.90;;;;;;4995562;28;20480;-72
2023/04/26 11:03:03;;;;;;;6.10;1.60;;;11.90;99.90;;;;;;4990440;28;20050;-73
2023/04/26 11:05:32;;;;;;;4.75;1.65;;;12.00;99.90;;;;;;4983959;28;20385;-73
2023/04/26 11:08:06;;;;;;;5.53;1.55;;;12.00;99.90;;;;;;4995153;28;20144;-72
2023/04/26 11:10:32;;;;;;;5.60;1.48;;;12.00;99.90;;;;;;4995540;28;20027;-72
2023/04/26 11:13:04;;;;;;;4.05;1.52;;;11.90;99.90;;;;;;4995528;28;20022;-72
2023/04/26 11:15:30;;;;;;;5.85;1.60;;;11.90;99.90;;;;;;4994866;28;20023;-72
2023/04/26 11:17:56;;;;;;;4.07;1.30;;;11.80;99.90;;;;;;4995710;28;20033;-72
2023/04/26 11:20:30;;;;;;;2.22;1.08;;;11.70;99.90;;;;;;4995004;28;20022;-73
2023/04/26 11:22:57;;;;;;;3.38;1.45;;;11.60;99.90;;;;;;4985556;28;20022;-72
2023/04/26 11:25:25;;;;;;;2.30;1.20;;;11.50;99.90;;;;;;4995071;28;20489;-72
2023/04/26 11:27:56;;;;;;;3.25;1.38;;;11.50;99.90;;;;;;4994669;28;20385;-72
2023/04/26 11:30:22;;;;;;;6.70;1.50;;;11.50;99.90;;;;;;4977334;28;20034;-72
2023/04/26 11:32:47;;;;;;;7.75;1.70;;;11.50;99.90;;;;;;4994747;28;20362;-72
2023/04/26 11:35:14;;;;;;;2.45;1.20;;;11.60;99.90;;;;;;4995188;28;20026;-72
2023/04/26 11:37:40;;;;;;;4.45;1.70;;;11.50;99.90;;;;;;4994846;28;20026;-72
2023/04/26 11:40:09;;;;;;;3.00;1.60;;;11.50;99.90;;;;;;4993965;28;20028;-73
2023/04/26 11:42:34;;;;;;;3.35;1.30;;;11.50;99.90;;;;;;4994117;28;20045;-72
2023/04/26 11:45:00;;;;;;;4.80;1.30;;;11.40;99.90;;;;;;4989722;28;20109;-73
2023/04/26 11:47:29;;;;;;;4.53;1.40;;;11.10;99.90;;;;;;4995247;28;20038;-72
2023/04/26 11:49:55;;;;;;;6.18;1.60;;;10.90;99.90;;;;;;4994945;28;20038;-72
2023/04/26 11:52:21;;;;;;;4.22;1.42;;;10.90;99.90;;;;;;4994643;28;20038;-72
2023/04/26 11:54:46;;;;;;;5.85;1.88;;;10.90;99.90;;;;;;4994348;28;20061;-72
2023/04/26 11:57:17;;;;;;;6.43;1.67;;;10.90;99.90;;;;;;4994337;28;20022;-73
2023/04/26 11:59:43;;;;;;;5.70;1.58;;;11.00;99.90;;;;;;4994844;28;20054;-73
2023/04/26 12:02:09;;;;;;;5.22;1.50;;;11.10;99.90;;;;;;4999573;28;20026;-73
2023/04/26 12:04:36;;;;;;;2.45;1.45;;;11.20;99.90;;;;;;4994823;28;20032;-73
2023/04/26 12:07:03;;;;;;;4.95;1.50;;;11.30;99.90;;;;;;4994036;28;20069;-73
2023/04/26 12:09:30;;;;;;;4.82;1.45;;;11.60;99.90;;;;;;4994004;28;20110;-73
2023/04/26 12:12:06;;;;;;;5.93;1.70;;;11.80;99.90;;;;;;4994305;28;20496;-74
2023/04/26 12:14:33;;;;;;;5.90;1.77;;;12.00;99.00;;;;;;4981560;28;20018;-73
2023/04/26 12:17:01;;;;;;;4.55;1.95;;;12.10;98.80;;;;;;4993985;28;20113;-72
2023/04/26 12:19:27;;;;;;;4.95;1.77;;;12.20;98.70;;;;;;4994050;28;20021;-73
2023/04/26 12:21:54;;;;;;;3.55;1.30;;;12.20;98.30;;;;;;4993736;28;20034;-73
2023/04/26 12:24:25;;;;;;;5.10;1.63;;;12.30;97.00;;;;;;4994443;28;20022;-73
2023/04/26 12:26:51;;;;;;;4.40;1.50;;;12.30;97.20;;;;;;4993669;28;20486;-72
2023/04/26 12:29:16;;;;;;;3.13;1.40;;;12.30;97.30;;;;;;4983178;28;20033;-73
2023/04/26 12:31:42;;;;;;;3.75;1.58;;;12.30;95.80;;;;;;4993847;28;20034;-73
2023/04/26 12:34:08;;;;;;;4.57;1.80;;;12.20;97.20;;;;;;4993887;28;20077;-71
2023/04/26 12:36:34;;;;;;;3.60;1.40;;;12.30;98.00;;;;;;4993464;28;20054;-72
2023/04/26 12:39:02;;;;;;;4.63;1.58;;;12.30;96.10;;;;;;4993879;28;20026;-72
2023/04/26 12:41:28;;;;;;;7.18;1.60;;;12.20;96.30;;;;;;4993280;28;20369;-72
2023/04/26 12:43:53;;;;;;;6.82;1.73;;;12.10;93.70;;;;;;4993383;28;20034;-71
2023/04/26 12:46:19;;;;;;;5.97;1.63;;;12.00;95.30;;;;;;4993174;28;20049;-71
2023/04/26 12:48:45;;;;;;;6.38;2.15;;;12.10;95.40;;;;;;4993512;28;20067;-72
2023/04/26 12:51:11;;;;;;;6.22;1.52;;;12.20;94.60;;;;;;4992453;28;20038;-71